createdAt,value
2018-11-25T00:00:29.821Z,0.40
2018-11-25T00:02:59.346Z,0.40
2018-11-25T00:05:28.669Z,0.40
2018-11-25T00:07:57.840Z,0.40
2018-11-25T00:10:27.379Z,0.30
2018-11-25T00:12:56.645Z,0.30
2018-11-25T00:15:26.025Z,0.30
2018-11-25T00:17:55.354Z,0.30
2018-11-25T00:20:25.026Z,0.20
2018-11-25T00:22:54.810Z,0.20
2018-11-25T00:25:24.485Z,0.20
2018-11-25T00:27:54.119Z,0.20
2018-11-25T00:30:23.396Z,0.10
2018-11-25T00:32:53.818Z,0.10
2018-11-25T00:35:23.218Z,0.00
2018-11-25T00:37:52.577Z,0.00
2018-11-25T00:40:22.350Z,0.00
2018-11-25T00:42:51.682Z,-0.10
2018-11-25T00:45:21.195Z,-0.20
2018-11-25T00:47:51.179Z,-0.20
2018-11-25T00:50:20.709Z,-0.30
2018-11-25T00:52:50.833Z,-0.30
2018-11-25T00:55:20.381Z,-0.40
2018-11-25T00:57:49.646Z,-0.50
2018-11-25T01:00:19.994Z,-0.50
2018-11-25T01:02:50.467Z,-0.50
2018-11-25T01:05:20.566Z,-0.60
2018-11-25T01:07:49.790Z,-0.60
2018-11-25T01:10:20.230Z,-0.70
2018-11-25T01:12:49.607Z,-0.70
2018-11-25T01:15:19.445Z,-0.70
2018-11-25T01:17:49.313Z,-0.80
2018-11-25T01:20:20.987Z,-0.80
2018-11-25T01:22:50.718Z,-0.80
2018-11-25T01:25:20.278Z,-0.90
2018-11-25T01:27:49.824Z,-0.80
2018-11-25T01:30:20.457Z,-0.90
2018-11-25T01:32:49.844Z,-0.90
2018-11-25T01:35:20.214Z,-0.90
2018-11-25T01:37:49.673Z,-0.90
2018-11-25T01:40:19.708Z,-0.90
2018-11-25T01:42:49.180Z,-0.90
2018-11-25T01:45:19.614Z,-0.90
2018-11-25T01:47:49.189Z,-0.90
2018-11-25T01:50:19.065Z,-0.90
2018-11-25T01:52:51.189Z,-0.90
2018-11-25T01:55:21.838Z,-1.00
2018-11-25T01:57:51.751Z,-1.00
2018-11-25T02:00:22.939Z,-1.00
2018-11-25T02:02:52.477Z,-1.00
2018-11-25T02:05:22.265Z,-1.00
2018-11-25T02:07:51.754Z,-1.00
2018-11-25T02:10:21.802Z,-1.00
2018-11-25T02:12:52.143Z,-1.00
2018-11-25T02:15:21.865Z,-1.10
2018-11-25T02:17:51.523Z,-1.10
2018-11-25T02:20:22.258Z,-1.10
2018-11-25T02:22:53.289Z,-1.20
2018-11-25T02:35:22.018Z,-1.20
2018-11-25T02:37:51.633Z,-1.20
2018-11-25T02:40:21.411Z,-1.20
2018-11-25T02:42:51.180Z,-1.30
2018-11-25T02:45:21.048Z,-1.30
2018-11-25T02:47:50.982Z,-1.30
2018-11-25T02:50:30.832Z,-1.30
2018-11-25T02:53:02.259Z,-1.30
2018-11-25T02:55:31.943Z,-1.30
2018-11-25T02:58:02.234Z,-1.30
2018-11-25T03:00:32.570Z,-1.30
2018-11-25T03:03:02.018Z,-1.30
2018-11-25T03:05:31.450Z,-1.40
2018-11-25T03:08:00.924Z,-1.40
2018-11-25T03:10:30.364Z,-1.40
2018-11-25T03:12:59.721Z,-1.40
2018-11-25T03:15:29.847Z,-1.40
2018-11-25T03:17:59.214Z,-1.40
2018-11-25T03:20:28.486Z,-1.40
2018-11-25T03:22:58.257Z,-1.40
2018-11-25T03:25:28.166Z,-1.40
2018-11-25T03:27:57.674Z,-1.40
2018-11-25T03:30:27.789Z,-1.40
2018-11-25T03:32:57.246Z,-1.40
2018-11-25T03:35:26.966Z,-1.50
2018-11-25T03:37:56.305Z,-1.40
2018-11-25T03:40:26.875Z,-1.40
2018-11-25T03:42:56.414Z,-1.40
2018-11-25T03:45:27.579Z,-1.40
2018-11-25T03:47:57.083Z,-1.40
2018-11-25T03:50:27.117Z,-1.40
2018-11-25T03:52:56.743Z,-1.40
2018-11-25T03:55:26.515Z,-1.40
2018-11-25T03:57:56.154Z,-1.40
2018-11-25T04:00:26.004Z,-1.40
2018-11-25T04:02:56.266Z,-1.40
2018-11-25T04:05:25.704Z,-1.30
2018-11-25T04:07:55.283Z,-1.30
2018-11-25T04:10:24.823Z,-1.30
2018-11-25T04:12:54.376Z,-1.30
2018-11-25T04:15:24.146Z,-1.30
2018-11-25T04:17:53.711Z,-1.30
2018-11-25T04:20:23.111Z,-1.30
2018-11-25T04:22:53.103Z,-1.30
2018-11-25T04:25:22.566Z,-1.30
2018-11-25T04:27:52.454Z,-1.30
2018-11-25T04:30:22.623Z,-1.30
2018-11-25T04:32:52.166Z,-1.20
2018-11-25T04:35:21.601Z,-1.20
2018-11-25T04:37:51.448Z,-1.20
2018-11-25T04:40:20.802Z,-1.20
2018-11-25T04:42:50.143Z,-1.20
2018-11-25T04:45:19.698Z,-1.10
2018-11-25T04:47:49.003Z,-1.10
2018-11-25T04:50:21.652Z,-1.10
2018-11-25T04:52:51.274Z,-1.00
2018-11-25T04:55:21.520Z,-1.00
2018-11-25T04:57:52.822Z,-1.00
2018-11-25T05:00:22.335Z,-0.90
2018-11-25T05:02:52.300Z,-0.90
2018-11-25T05:05:21.873Z,-0.90
2018-11-25T05:07:51.249Z,-0.90
2018-11-25T05:10:20.690Z,-0.80
2018-11-25T05:12:50.505Z,-0.80
2018-11-25T05:15:22.222Z,-0.80
2018-11-25T05:17:51.825Z,-0.70
2018-11-25T05:20:21.409Z,-0.70
2018-11-25T05:22:50.829Z,-0.60
2018-11-25T05:25:20.792Z,-0.60
2018-11-25T05:27:50.118Z,-0.60
2018-11-25T05:30:21.391Z,-0.50
2018-11-25T05:32:50.953Z,-0.50
2018-11-25T05:35:21.326Z,-0.50
2018-11-25T05:37:50.767Z,-0.60
2018-11-25T05:40:20.147Z,-0.60
2018-11-25T05:42:50.158Z,-0.50
2018-11-25T05:45:20.621Z,-0.50
2018-11-25T05:47:49.886Z,-0.50
2018-11-25T05:50:19.731Z,-0.50
2018-11-25T05:52:49.231Z,-0.50
2018-11-25T05:55:18.704Z,-0.50
2018-11-25T06:00:20.638Z,-0.50
2018-11-25T06:02:50.111Z,-0.50
2018-11-25T06:05:19.336Z,-0.50
2018-11-25T06:07:48.934Z,-0.60
2018-11-25T06:10:18.239Z,-0.60
2018-11-25T06:12:47.436Z,-0.60
2018-11-25T06:15:16.803Z,-0.70
2018-11-25T06:17:46.085Z,-0.70
2018-11-25T06:20:16.261Z,-0.70
2018-11-25T06:22:46.588Z,-0.80
2018-11-25T06:25:17.198Z,-0.80
2018-11-25T06:27:46.540Z,-0.80
2018-11-25T06:30:18.058Z,-0.80
2018-11-25T06:32:47.260Z,-0.90
2018-11-25T06:35:17.771Z,-0.90
2018-11-25T06:37:47.507Z,-0.90
2018-11-25T06:43:20.692Z,-1.00
2018-11-25T06:45:50.017Z,-1.00
2018-11-25T06:48:19.486Z,-1.00
2018-11-25T06:50:49.821Z,-1.00
2018-11-25T06:53:18.998Z,-1.10
2018-11-25T06:55:54.813Z,-1.00
2018-11-25T06:58:24.505Z,-1.10
2018-11-25T07:00:53.825Z,-1.10
2018-11-25T07:03:23.614Z,-1.10
2018-11-25T07:05:53.082Z,-1.20
2018-11-25T07:08:23.387Z,-1.20
2018-11-25T07:10:52.975Z,-1.20
2018-11-25T07:13:22.371Z,-1.20
2018-11-25T07:15:51.767Z,-1.20
2018-11-25T07:18:21.283Z,-1.30
2018-11-25T07:20:50.662Z,-1.30
2018-11-25T07:23:20.061Z,-1.40
2018-11-25T07:25:49.617Z,-1.40
2018-11-25T07:28:18.982Z,-1.40
2018-11-25T07:30:48.294Z,-1.40
2018-11-25T07:33:17.835Z,-1.50
2018-11-25T07:35:47.567Z,-1.40
2018-11-25T07:38:16.858Z,-1.50
2018-11-25T07:40:46.229Z,-1.40
2018-11-25T07:43:15.568Z,-1.50
2018-11-25T07:45:44.950Z,-1.40
2018-11-25T07:48:14.401Z,-1.40
2018-11-25T07:50:44.123Z,-1.40
2018-11-25T07:53:13.645Z,-1.40
2018-11-25T07:55:43.164Z,-1.40
2018-11-25T07:58:12.978Z,-1.40
2018-11-25T08:00:43.358Z,-1.40
2018-11-25T08:03:13.196Z,-1.30
2018-11-25T08:05:42.567Z,-1.30
2018-11-25T08:08:11.968Z,-1.20
2018-11-25T08:10:41.739Z,-1.20
2018-11-25T08:13:11.149Z,-1.20
2018-11-25T08:15:47.825Z,-1.10
2018-11-25T08:18:17.130Z,-1.10
2018-11-25T08:20:46.425Z,-1.00
2018-11-25T08:23:15.918Z,-1.00
2018-11-25T08:25:45.150Z,-0.90
2018-11-25T08:28:14.486Z,-0.90
2018-11-25T08:30:43.932Z,-0.80
2018-11-25T08:33:13.103Z,-0.80
2018-11-25T08:35:42.418Z,-0.80
2018-11-25T08:38:12.333Z,-0.70
2018-11-25T08:40:41.797Z,-0.70
2018-11-25T08:43:11.023Z,-0.60
2018-11-25T08:45:41.057Z,-0.60
2018-11-25T08:48:10.420Z,-0.50
2018-11-25T08:50:40.860Z,-0.40
2018-11-25T08:53:10.623Z,-0.40
2018-11-25T08:55:40.315Z,-0.30
2018-11-25T08:58:09.654Z,-0.30
2018-11-25T09:00:39.754Z,-0.20
2018-11-25T09:03:09.136Z,-0.20
2018-11-25T09:05:38.591Z,-0.20
2018-11-25T09:08:08.026Z,-0.10
2018-11-25T09:10:37.286Z,-0.10
2018-11-25T09:13:07.038Z,0.00
2018-11-25T09:15:36.270Z,0.00
2018-11-25T09:18:05.630Z,0.00
2018-11-25T09:20:34.981Z,0.10
2018-11-25T09:23:04.301Z,0.10
2018-11-25T09:25:33.690Z,0.20
2018-11-25T09:28:03.831Z,0.20
2018-11-25T09:30:33.806Z,0.30
2018-11-25T09:33:03.062Z,0.30
2018-11-25T09:35:32.483Z,0.30
2018-11-25T09:38:01.838Z,0.40
2018-11-25T09:40:31.217Z,0.40
2018-11-25T09:43:00.731Z,0.50
2018-11-25T09:45:29.938Z,0.50
2018-11-25T09:47:59.208Z,0.50
2018-11-25T09:50:28.791Z,0.60
2018-11-25T09:52:58.116Z,0.60
2018-11-25T09:55:27.427Z,0.70
2018-11-25T09:57:58.757Z,0.70
2018-11-25T10:00:29.055Z,0.80
2018-11-25T10:02:58.449Z,0.80
2018-11-25T10:05:28.403Z,0.90
2018-11-25T10:07:58.126Z,1.00
2018-11-25T10:10:27.515Z,1.00
2018-11-25T10:12:56.951Z,1.00
2018-11-25T10:15:27.477Z,1.10
2018-11-25T10:17:59.853Z,1.20
2018-11-25T10:20:28.046Z,1.20
2018-11-25T10:22:57.317Z,1.20
2018-11-25T10:25:26.521Z,1.30
2018-11-25T10:27:55.907Z,1.40
2018-11-25T10:30:27.331Z,1.40
2018-11-25T10:32:58.114Z,1.50
2018-11-25T10:35:27.461Z,1.60
2018-11-25T10:37:56.861Z,1.60
2018-11-25T10:40:26.574Z,1.70
2018-11-25T10:42:55.973Z,1.70
2018-11-25T10:45:26.259Z,1.80
2018-11-25T10:47:56.529Z,1.90
2018-11-25T10:50:25.835Z,1.90
2018-11-25T10:52:55.319Z,2.00
2018-11-25T10:55:24.777Z,2.00
2018-11-25T10:57:54.367Z,2.10
2018-11-25T11:00:34.895Z,2.20
2018-11-25T11:03:09.978Z,2.20
2018-11-25T11:05:45.062Z,2.30
2018-11-25T11:08:14.560Z,2.30
2018-11-25T11:10:44.043Z,2.40
2018-11-25T11:13:14.495Z,2.40
2018-11-25T11:15:44.537Z,2.50
2018-11-25T11:18:14.579Z,2.50
2018-11-25T11:20:44.267Z,2.60
2018-11-25T11:23:13.882Z,2.70
2018-11-25T11:25:43.118Z,2.70
2018-11-25T11:28:12.395Z,2.80
2018-11-25T11:30:42.057Z,2.80
2018-11-25T11:33:11.361Z,2.80
2018-11-25T11:35:40.727Z,2.90
2018-11-25T11:38:10.195Z,2.90
2018-11-25T11:40:39.418Z,2.90
2018-11-25T11:43:08.642Z,3.00
2018-11-25T11:45:38.029Z,3.00
2018-11-25T11:48:07.382Z,3.10
2018-11-25T11:50:36.678Z,3.10
2018-11-25T11:53:07.029Z,3.10
2018-11-25T11:55:36.397Z,3.10
2018-11-25T11:58:05.928Z,3.10
2018-11-25T12:00:35.347Z,3.10
2018-11-25T12:03:04.654Z,3.10
2018-11-25T12:05:33.985Z,3.10
2018-11-25T12:08:03.689Z,3.10
2018-11-25T12:10:32.899Z,3.10
2018-11-25T12:13:02.103Z,3.10
2018-11-25T12:15:32.170Z,3.10
2018-11-25T12:18:01.500Z,3.20
2018-11-25T12:20:31.979Z,3.20
2018-11-25T12:23:01.645Z,3.20
2018-11-25T12:25:30.899Z,3.20
2018-11-25T12:28:00.260Z,3.30
2018-11-25T12:30:29.669Z,3.30
2018-11-25T12:32:58.936Z,3.50
2018-11-25T12:35:28.372Z,3.70
2018-11-25T12:37:57.882Z,3.80
2018-11-25T12:40:27.445Z,4.40
2018-11-25T12:42:57.940Z,4.50
2018-11-25T12:45:27.463Z,4.50
2018-11-25T12:47:56.783Z,4.50
2018-11-25T12:50:26.941Z,4.40
2018-11-25T12:52:56.675Z,4.40
2018-11-25T12:55:26.956Z,4.40
2018-11-25T12:57:57.203Z,4.30
2018-11-25T13:00:30.943Z,4.20
2018-11-25T13:03:00.337Z,4.20
2018-11-25T13:05:29.667Z,4.10
2018-11-25T13:07:58.998Z,3.90
2018-11-25T13:10:28.604Z,3.70
2018-11-25T13:12:58.019Z,3.50
2018-11-25T13:15:27.257Z,3.30
2018-11-25T13:17:56.746Z,3.10
2018-11-25T13:20:26.032Z,3.00
2018-11-25T13:22:55.306Z,2.90
2018-11-25T13:25:24.834Z,2.80
2018-11-25T13:27:54.227Z,2.80
2018-11-25T13:30:26.828Z,2.70
2018-11-25T13:32:57.399Z,2.70
2018-11-25T13:35:28.193Z,2.60
2018-11-25T13:37:57.466Z,2.60
2018-11-25T13:40:26.766Z,2.50
2018-11-25T13:42:56.358Z,2.50
2018-11-25T13:45:25.720Z,2.40
2018-11-25T13:47:54.999Z,2.40
2018-11-25T13:50:24.355Z,2.30
2018-11-25T13:52:54.071Z,2.20
2018-11-25T13:55:26.591Z,2.20
2018-11-25T13:57:56.166Z,2.10
2018-11-25T14:00:30.790Z,2.10
2018-11-25T14:03:00.184Z,2.10
2018-11-25T14:05:29.338Z,2.00
2018-11-25T14:07:58.730Z,2.00
2018-11-25T14:10:30.031Z,1.90
2018-11-25T14:12:59.703Z,1.80
2018-11-25T14:15:29.734Z,1.80
2018-11-25T14:17:58.354Z,1.70
2018-11-25T14:20:27.902Z,1.70
2018-11-25T14:22:57.290Z,1.60
2018-11-25T14:25:27.280Z,1.60
2018-11-25T14:27:58.708Z,1.50
2018-11-25T14:30:29.388Z,1.40
2018-11-25T14:32:58.732Z,1.40
2018-11-25T14:35:28.498Z,1.30
2018-11-25T14:37:57.747Z,1.20
2018-11-25T14:40:27.025Z,1.10
2018-11-25T14:42:56.532Z,1.00
2018-11-25T14:45:25.910Z,1.00
2018-11-25T14:47:55.383Z,0.90
2018-11-25T14:50:24.759Z,0.90
2018-11-25T14:52:54.621Z,0.80
2018-11-25T14:55:23.873Z,0.80
2018-11-25T14:57:54.677Z,0.70
2018-11-25T15:00:23.934Z,0.70
2018-11-25T15:02:59.041Z,0.70
2018-11-25T15:05:33.835Z,0.60
2018-11-25T15:08:03.163Z,0.60
2018-11-25T15:10:32.385Z,0.50
2018-11-25T15:13:01.647Z,0.50
2018-11-25T15:15:31.522Z,0.50
2018-11-25T15:18:00.798Z,0.40
2018-11-25T15:20:30.212Z,0.40
2018-11-25T15:23:01.724Z,0.30
2018-11-25T15:25:34.015Z,0.20
2018-11-25T15:28:03.545Z,0.20
2018-11-25T15:30:33.039Z,0.10
2018-11-25T15:33:03.575Z,0.00
2018-11-25T15:35:32.995Z,-0.10
2018-11-25T15:38:02.401Z,-0.10
2018-11-25T15:40:33.359Z,-0.20
2018-11-25T15:43:03.233Z,-0.20
2018-11-25T15:45:33.046Z,-0.10
2018-11-25T15:48:04.393Z,-0.10
2018-11-25T15:50:34.230Z,-0.20
2018-11-25T15:53:04.363Z,-0.20
2018-11-25T15:55:33.806Z,-0.20
2018-11-25T15:58:03.142Z,-0.30
2018-11-25T16:00:32.542Z,-0.40
2018-11-25T16:03:01.831Z,-0.50
2018-11-25T16:05:33.978Z,-0.60
2018-11-25T16:08:04.457Z,-0.60
2018-11-25T16:10:32.863Z,-0.70
2018-11-25T16:13:02.274Z,-0.70
2018-11-25T16:15:31.665Z,-0.70
2018-11-25T16:18:02.474Z,-0.80
2018-11-25T16:20:32.030Z,-0.80
2018-11-25T16:23:03.602Z,-0.80
2018-11-25T16:25:37.660Z,-0.90
2018-11-25T16:30:42.558Z,-1.00
2018-11-25T16:33:11.862Z,-1.00
2018-11-25T16:35:41.332Z,-1.00
2018-11-25T16:38:10.964Z,-1.10
2018-11-25T16:40:40.198Z,-1.00
2018-11-25T16:43:09.488Z,-1.00
2018-11-25T16:45:39.192Z,-1.00
2018-11-25T16:48:08.931Z,-1.10
2018-11-25T16:50:38.108Z,-1.10
2018-11-25T16:53:07.941Z,-1.10
2018-11-25T16:55:37.157Z,-1.20
2018-11-25T16:58:07.065Z,-1.20
2018-11-25T17:00:36.403Z,-1.20
2018-11-25T17:03:06.634Z,-1.20
2018-11-25T17:05:39.109Z,-1.20
2018-11-25T17:08:18.326Z,-1.20
2018-11-25T17:10:48.015Z,-1.30
2018-11-25T17:13:17.306Z,-1.30
2018-11-25T17:15:46.592Z,-1.30
2018-11-25T17:18:15.976Z,-1.20
2018-11-25T17:20:45.238Z,-1.20
2018-11-25T17:23:14.427Z,-1.20
2018-11-25T17:25:43.865Z,-1.10
2018-11-25T17:28:13.346Z,-1.10
2018-11-25T17:30:42.541Z,-1.10
2018-11-25T17:33:12.682Z,-1.00
2018-11-25T17:35:41.848Z,-1.00
2018-11-25T17:38:11.050Z,-1.00
2018-11-25T17:40:40.579Z,-1.00
2018-11-25T17:43:12.667Z,-1.00
2018-11-25T17:45:42.342Z,-1.00
2018-11-25T17:48:12.036Z,-1.00
2018-11-25T17:50:41.250Z,-1.10
2018-11-25T17:53:11.496Z,-1.00
2018-11-25T17:55:40.756Z,-1.10
2018-11-25T17:58:10.664Z,-1.10
2018-11-25T18:00:46.098Z,-1.20
2018-11-25T18:03:19.793Z,-1.20
2018-11-25T18:05:49.335Z,-1.30
2018-11-25T18:08:18.614Z,-1.30
2018-11-25T18:10:47.912Z,-1.30
2018-11-25T18:13:18.753Z,-1.40
2018-11-25T18:15:48.336Z,-1.40
2018-11-25T18:18:24.738Z,-1.40
2018-11-25T18:20:56.081Z,-1.40
2018-11-25T18:23:25.479Z,-1.40
2018-11-25T18:25:54.918Z,-1.40
2018-11-25T18:28:24.802Z,-1.40
2018-11-25T18:30:54.736Z,-1.40
2018-11-25T18:33:24.056Z,-1.40
2018-11-25T18:35:53.263Z,-1.40
2018-11-25T18:38:22.630Z,-1.40
2018-11-25T18:40:52.818Z,-1.50
2018-11-25T18:43:22.074Z,-1.50
2018-11-25T18:45:54.424Z,-1.50
2018-11-25T18:48:20.701Z,-1.60
2018-11-25T18:50:50.453Z,-1.60
2018-11-25T18:53:19.862Z,-1.60
2018-11-25T18:55:47.887Z,-1.70
2018-11-25T18:58:17.091Z,-1.70
2018-11-25T19:20:41.298Z,-2.20
2018-11-25T19:23:10.670Z,-2.20
2018-11-25T19:25:39.963Z,-2.20
2018-11-25T19:28:10.154Z,-2.30
2018-11-25T19:30:39.449Z,-2.40
2018-11-25T19:33:09.520Z,-2.50
2018-11-25T19:35:38.706Z,-2.50
2018-11-25T19:38:08.891Z,-2.50
2018-11-25T19:40:38.247Z,-2.60
2018-11-25T19:43:08.554Z,-2.60
2018-11-25T19:45:38.272Z,-2.60
2018-11-25T19:48:07.741Z,-2.70
2018-11-25T19:50:38.156Z,-2.70
2018-11-25T19:53:09.411Z,-2.80
2018-11-25T19:55:39.271Z,-2.70
2018-11-25T19:58:08.687Z,-2.70
2018-11-25T20:00:38.214Z,-2.70
2018-11-25T20:03:08.102Z,-2.70
2018-11-25T20:05:37.555Z,-2.80
2018-11-25T20:08:08.162Z,-2.80
2018-11-25T20:10:37.361Z,-2.80
2018-11-25T20:13:08.818Z,-2.70
2018-11-25T20:15:38.596Z,-2.80
2018-11-25T20:24:08.988Z,-2.60
2018-11-25T20:26:42.357Z,-2.60
2018-11-25T20:29:11.836Z,-2.50
2018-11-25T20:31:41.206Z,-2.50
2018-11-25T20:34:10.915Z,-2.50
2018-11-25T20:36:40.331Z,-2.50
2018-11-25T20:39:15.319Z,-2.60
2018-11-25T20:41:44.853Z,-2.60
2018-11-25T20:44:14.129Z,-2.60
2018-11-25T20:46:48.801Z,-2.70
2018-11-25T20:49:17.962Z,-2.70
2018-11-25T20:51:52.930Z,-2.80
2018-11-25T20:54:22.126Z,-2.90
2018-11-25T20:56:52.183Z,-3.00
2018-11-25T20:59:21.590Z,-2.90
2018-11-25T21:01:50.969Z,-3.00
2018-11-25T21:06:50.139Z,-3.00
2018-11-25T21:09:19.547Z,-3.00
2018-11-25T21:11:48.834Z,-3.00
2018-11-25T21:14:18.562Z,-3.10
2018-11-25T21:16:48.047Z,-3.20
2018-11-25T21:19:17.852Z,-3.30
2018-11-25T21:21:47.457Z,-3.30
2018-11-25T21:24:17.083Z,-3.30
2018-11-25T21:26:46.302Z,-3.30
2018-11-25T21:29:16.490Z,-3.20
2018-11-25T21:31:45.467Z,-3.20
2018-11-25T21:34:14.873Z,-3.20
2018-11-25T21:36:44.456Z,-3.40
2018-11-25T21:39:14.783Z,-3.50
2018-11-25T21:41:44.104Z,-3.50
2018-11-25T21:44:14.749Z,-3.50
2018-11-25T21:46:45.194Z,-3.60
2018-11-25T21:49:14.768Z,-3.50
2018-11-25T21:51:44.526Z,-3.50
2018-11-25T21:54:14.198Z,-3.60
2018-11-25T21:56:43.410Z,-3.70
2018-11-25T21:59:14.061Z,-3.70
2018-11-25T22:01:43.321Z,-3.70
2018-11-25T22:04:13.022Z,-3.70
2018-11-25T22:06:42.326Z,-3.70
2018-11-25T22:09:12.512Z,-3.60
2018-11-25T22:11:42.002Z,-3.70
2018-11-25T22:14:11.455Z,-3.70
2018-11-25T22:16:41.538Z,-3.70
2018-11-25T22:19:10.860Z,-3.70
2018-11-25T22:21:41.032Z,-3.70
2018-11-25T22:24:10.655Z,-3.80
2018-11-25T22:26:40.930Z,-3.80
2018-11-25T22:29:10.930Z,-3.80
2018-11-25T22:31:41.269Z,-3.80
2018-11-25T22:34:12.154Z,-3.80
2018-11-25T22:36:41.729Z,-3.80
2018-11-25T22:39:11.640Z,-3.70
2018-11-25T22:41:41.029Z,-3.80
2018-11-25T22:44:10.768Z,-3.70
2018-11-25T22:46:40.341Z,-3.80
2018-11-25T22:49:10.294Z,-3.80
2018-11-25T22:51:39.527Z,-3.90
2018-11-25T22:54:09.705Z,-4.00
2018-11-25T22:56:39.050Z,-4.00
2018-11-25T22:59:08.561Z,-4.00
2018-11-25T23:01:38.394Z,-3.90
2018-11-25T23:04:18.633Z,-3.90
2018-11-25T23:07:01.716Z,-3.90
2018-11-25T23:09:31.001Z,-3.90
2018-11-25T23:12:00.147Z,-4.00
2018-11-25T23:14:29.578Z,-4.00
2018-11-25T23:16:58.912Z,-4.00
2018-11-25T23:19:28.107Z,-4.10
2018-11-25T23:21:57.802Z,-4.20
2018-11-25T23:24:27.189Z,-4.20
2018-11-25T23:26:56.410Z,-4.20
2018-11-25T23:29:27.031Z,-4.20
2018-11-25T23:31:56.471Z,-4.20
2018-11-25T23:34:26.233Z,-4.30
2018-11-25T23:36:55.531Z,-4.30
2018-11-25T23:39:24.987Z,-4.40
2018-11-25T23:41:54.654Z,-4.40
2018-11-25T23:44:23.877Z,-4.40
2018-11-25T23:46:53.298Z,-4.40
2018-11-25T23:49:23.338Z,-4.50
2018-11-25T23:51:52.760Z,-4.40
2018-11-25T23:54:22.381Z,-4.40
2018-11-25T23:56:51.838Z,-4.40
2018-11-25T23:59:21.252Z,-4.40
